createdAt,value
2018-07-03T00:00:13.863Z,22.40
2018-07-03T00:00:45.047Z,22.37
2018-07-03T00:01:16.221Z,22.35
2018-07-03T00:01:47.425Z,22.31
2018-07-03T00:02:19.825Z,22.28
2018-07-03T00:02:51.005Z,22.26
2018-07-03T00:03:22.250Z,22.23
2018-07-03T00:03:53.521Z,22.22
2018-07-03T00:04:24.764Z,22.19
2018-07-03T00:04:55.946Z,22.11
2018-07-03T00:05:27.125Z,22.16
2018-07-03T00:05:58.314Z,22.13
2018-07-03T00:06:30.165Z,22.10
2018-07-03T00:07:01.409Z,22.08
2018-07-03T00:07:32.585Z,22.09
2018-07-03T00:08:03.764Z,22.10
2018-07-03T00:08:34.944Z,22.09
2018-07-03T00:09:06.214Z,22.06
2018-07-03T00:09:37.400Z,22.05
2018-07-03T00:10:08.602Z,22.04
2018-07-03T00:10:39.793Z,22.04
2018-07-03T00:11:11.089Z,22.05
2018-07-03T00:11:42.316Z,22.05
2018-07-03T00:12:13.510Z,22.07
2018-07-03T00:12:44.736Z,22.06
2018-07-03T00:13:15.919Z,22.09
2018-07-03T00:13:47.153Z,22.10
2018-07-03T00:14:18.392Z,22.11
2018-07-03T00:14:50.316Z,22.12
2018-07-03T00:15:21.497Z,22.13
2018-07-03T00:15:52.673Z,22.12
2018-07-03T00:16:23.884Z,22.13
2018-07-03T00:16:55.056Z,22.12
2018-07-03T00:17:26.279Z,22.11
2018-07-03T00:17:57.488Z,22.10
2018-07-03T00:18:28.668Z,22.11
2018-07-03T00:18:59.852Z,22.11
2018-07-03T00:19:31.076Z,22.12
2018-07-03T00:20:02.888Z,22.12
2018-07-03T00:20:34.981Z,22.13
2018-07-03T00:21:06.869Z,22.13
2018-07-03T00:21:38.059Z,22.13
2018-07-03T00:22:09.289Z,22.15
2018-07-03T00:22:41.650Z,22.15
2018-07-03T00:23:12.824Z,22.16
2018-07-03T00:23:44.605Z,22.13
2018-07-03T00:24:15.782Z,22.11
2018-07-03T00:24:47.021Z,22.09
2018-07-03T00:25:18.208Z,22.10
2018-07-03T00:25:49.376Z,22.11
2018-07-03T00:26:20.558Z,22.12
2018-07-03T00:26:51.740Z,22.12
2018-07-03T00:27:22.920Z,22.11
2018-07-03T00:27:54.105Z,22.11
2018-07-03T00:28:26.483Z,22.11
2018-07-03T00:28:57.660Z,22.09
2018-07-03T00:29:28.840Z,22.09
2018-07-03T00:30:00.078Z,22.09
2018-07-03T00:30:31.322Z,22.08
2018-07-03T00:31:02.503Z,22.07
2018-07-03T00:31:33.752Z,22.07
2018-07-03T00:32:04.940Z,22.06
2018-07-03T00:32:36.108Z,22.07
2018-07-03T00:33:07.290Z,22.08
2018-07-03T00:33:38.570Z,22.07
2018-07-03T00:34:09.764Z,22.05
2018-07-03T00:34:41.001Z,22.05
2018-07-03T00:35:12.190Z,22.04
2018-07-03T00:35:43.377Z,22.05
2018-07-03T00:36:14.609Z,22.06
2018-07-03T00:36:45.797Z,22.04
2018-07-03T00:37:16.970Z,22.03
2018-07-03T00:37:48.197Z,22.00
2018-07-03T00:38:19.520Z,21.99
2018-07-03T00:38:50.696Z,21.99
2018-07-03T00:39:21.933Z,21.96
2018-07-03T00:39:53.129Z,21.97
2018-07-03T00:40:24.330Z,22.00
2018-07-03T00:40:55.504Z,22.00
2018-07-03T00:41:26.716Z,22.01
2018-07-03T00:41:57.896Z,22.02
2018-07-03T00:42:29.077Z,22.01
2018-07-03T00:43:00.245Z,22.00
2018-07-03T00:43:31.422Z,21.99
2018-07-03T00:44:02.592Z,21.97
2018-07-03T00:44:33.804Z,21.97
2018-07-03T00:45:05.049Z,21.95
2018-07-03T00:45:36.241Z,21.93
2018-07-03T00:46:07.483Z,21.93
2018-07-03T00:46:38.724Z,21.90
2018-07-03T00:47:09.963Z,21.90
2018-07-03T00:47:41.160Z,21.87
2018-07-03T00:48:12.338Z,21.85
2018-07-03T00:48:43.508Z,21.85
2018-07-03T00:49:14.738Z,21.85
2018-07-03T00:49:45.980Z,21.84
2018-07-03T00:50:17.162Z,21.83
2018-07-03T00:50:48.332Z,21.81
2018-07-03T00:51:19.609Z,21.81
2018-07-03T00:51:50.792Z,21.81
2018-07-03T00:52:21.980Z,21.82
2018-07-03T00:52:53.149Z,21.81
2018-07-03T00:53:24.332Z,21.82
2018-07-03T00:53:55.501Z,21.83
2018-07-03T00:54:26.684Z,21.83
2018-07-03T00:54:57.917Z,21.85
2018-07-03T00:55:29.155Z,21.86
2018-07-03T00:56:00.341Z,21.86
2018-07-03T00:56:32.169Z,21.84
2018-07-03T00:57:03.361Z,21.78
2018-07-03T00:57:34.545Z,21.71
2018-07-03T00:58:05.736Z,21.65
2018-07-03T00:58:36.913Z,21.60
2018-07-03T00:59:08.084Z,21.53
2018-07-03T00:59:39.309Z,21.47
2018-07-03T01:00:10.528Z,21.48
2018-07-03T01:00:41.711Z,21.51
2018-07-03T01:01:12.886Z,21.53
2018-07-03T01:01:44.063Z,21.56
2018-07-03T01:02:15.236Z,21.56
2018-07-03T01:02:46.470Z,21.55
2018-07-03T01:03:17.645Z,21.56
2018-07-03T01:03:48.877Z,21.58
2018-07-03T01:04:20.107Z,21.56
2018-07-03T01:04:51.296Z,21.57
2018-07-03T01:05:22.510Z,21.56
2018-07-03T01:05:53.684Z,21.56
2018-07-03T01:06:24.854Z,21.55
2018-07-03T01:06:56.078Z,21.56
2018-07-03T01:07:27.323Z,21.58
2018-07-03T01:07:58.533Z,21.58
2018-07-03T01:08:29.701Z,21.58
2018-07-03T01:09:00.876Z,21.57
2018-07-03T01:09:32.100Z,21.59
2018-07-03T01:10:03.296Z,21.59
2018-07-03T01:10:34.464Z,21.61
2018-07-03T01:11:05.697Z,21.62
2018-07-03T01:11:36.935Z,21.65
2018-07-03T01:12:08.112Z,21.65
2018-07-03T01:12:39.283Z,21.64
2018-07-03T01:13:10.519Z,21.65
2018-07-03T01:13:41.723Z,21.68
2018-07-03T01:14:12.906Z,21.71
2018-07-03T01:14:44.091Z,21.72
2018-07-03T01:15:15.309Z,21.73
2018-07-03T01:15:46.487Z,21.75
2018-07-03T01:16:17.666Z,21.77
2018-07-03T01:16:48.836Z,21.76
2018-07-03T01:17:20.024Z,21.77
2018-07-03T01:17:51.195Z,21.76
2018-07-03T01:18:22.376Z,21.76
2018-07-03T01:18:53.601Z,21.76
2018-07-03T01:19:24.820Z,21.74
2018-07-03T01:19:56.049Z,21.74
2018-07-03T01:20:27.239Z,21.73
2018-07-03T01:20:58.457Z,21.74
2018-07-03T01:21:29.677Z,21.72
2018-07-03T01:22:01.128Z,21.72
2018-07-03T01:22:32.317Z,21.72
2018-07-03T01:23:03.530Z,21.70
2018-07-03T01:23:34.752Z,21.67
2018-07-03T01:24:05.942Z,21.66
2018-07-03T01:24:37.120Z,21.66
2018-07-03T01:25:09.327Z,21.62
2018-07-03T01:25:40.496Z,21.59
2018-07-03T01:26:11.683Z,21.55
2018-07-03T01:26:42.864Z,21.50
2018-07-03T01:27:14.125Z,21.46
2018-07-03T01:27:45.353Z,21.44
2018-07-03T01:28:16.604Z,21.47
2018-07-03T01:28:47.861Z,21.48
2018-07-03T01:29:20.021Z,21.48
2018-07-03T01:29:51.200Z,21.47
2018-07-03T01:30:22.428Z,21.50
2018-07-03T01:30:53.613Z,21.52
2018-07-03T01:31:24.797Z,21.51
2018-07-03T01:31:55.992Z,21.48
2018-07-03T01:32:27.159Z,21.46
2018-07-03T01:32:59.493Z,21.44
2018-07-03T01:33:30.713Z,21.45
2018-07-03T01:34:01.876Z,21.43
2018-07-03T01:34:33.105Z,21.33
2018-07-03T01:35:04.309Z,21.35
2018-07-03T01:35:35.550Z,21.32
2018-07-03T01:36:06.774Z,21.33
2018-07-03T01:36:38.013Z,21.30
2018-07-03T01:37:09.220Z,21.33
2018-07-03T01:37:40.400Z,21.35
2018-07-03T01:38:11.620Z,21.36
2018-07-03T01:38:42.868Z,21.33
2018-07-03T01:39:14.052Z,21.28
2018-07-03T01:39:45.241Z,21.26
2018-07-03T01:40:16.428Z,21.25
2018-07-03T01:40:47.651Z,21.25
2018-07-03T01:41:18.881Z,21.21
2018-07-03T01:41:50.059Z,21.16
2018-07-03T01:42:21.392Z,21.15
2018-07-03T01:42:52.620Z,21.14
2018-07-03T01:43:23.860Z,21.11
2018-07-03T01:43:55.039Z,21.12
2018-07-03T01:44:26.204Z,21.12
2018-07-03T01:44:57.429Z,21.08
2018-07-03T01:45:28.605Z,21.03
2018-07-03T01:45:59.873Z,21.02
2018-07-03T01:46:31.053Z,21.01
2018-07-03T01:47:02.228Z,20.98
2018-07-03T01:47:33.997Z,21.00
2018-07-03T01:48:05.181Z,21.00
2018-07-03T01:48:36.382Z,21.02
2018-07-03T01:49:07.568Z,21.03
2018-07-03T01:49:38.751Z,21.04
2018-07-03T01:50:10.009Z,21.07
2018-07-03T01:50:41.192Z,21.08
2018-07-03T01:51:12.413Z,21.08
2018-07-03T01:51:43.652Z,21.10
2018-07-03T01:52:14.897Z,21.08
2018-07-03T01:52:46.089Z,21.09
2018-07-03T01:53:17.268Z,21.09
2018-07-03T01:53:48.443Z,21.09
2018-07-03T01:54:19.668Z,21.08
2018-07-03T01:54:50.944Z,21.07
2018-07-03T01:55:22.173Z,19.92
2018-07-03T01:55:53.352Z,21.08
2018-07-03T01:56:24.531Z,21.07
2018-07-03T01:56:55.749Z,21.09
2018-07-03T01:57:26.952Z,21.06
2018-07-03T01:57:58.185Z,21.05
2018-07-03T01:58:29.359Z,21.04
2018-07-03T01:59:00.544Z,21.02
2018-07-03T01:59:32.061Z,21.03
2018-07-03T02:00:03.259Z,21.00
2018-07-03T02:00:34.534Z,20.99
2018-07-03T02:01:06.875Z,20.95
2018-07-03T02:01:38.060Z,20.94
2018-07-03T02:02:09.280Z,20.93
2018-07-03T02:02:40.464Z,20.90
2018-07-03T02:03:11.693Z,20.89
2018-07-03T02:03:42.914Z,20.90
2018-07-03T02:04:14.353Z,20.89
2018-07-03T02:04:45.592Z,20.91
2018-07-03T02:05:16.903Z,20.91
2018-07-03T02:05:48.132Z,20.92
2018-07-03T02:06:19.360Z,20.95
2018-07-03T02:06:50.582Z,20.97
2018-07-03T02:07:21.815Z,20.97
2018-07-03T02:07:53.112Z,20.97
2018-07-03T02:08:24.359Z,20.97
2018-07-03T02:08:55.549Z,20.97
2018-07-03T02:09:26.803Z,20.95
2018-07-03T02:09:57.985Z,20.96
2018-07-03T02:10:29.228Z,20.94
2018-07-03T02:11:00.467Z,20.92
2018-07-03T02:11:31.649Z,20.89
2018-07-03T02:12:02.846Z,20.87
2018-07-03T02:12:34.028Z,20.86
2018-07-03T02:13:05.204Z,20.85
2018-07-03T02:13:36.486Z,20.83
2018-07-03T02:14:07.669Z,20.80
2018-07-03T02:14:38.864Z,20.78
2018-07-03T02:15:10.044Z,20.74
2018-07-03T02:15:41.273Z,20.71
2018-07-03T02:16:12.521Z,20.68
2018-07-03T02:16:43.731Z,20.66
2018-07-03T02:17:14.909Z,20.66
2018-07-03T02:17:46.150Z,20.64
2018-07-03T02:18:17.346Z,20.63
2018-07-03T02:18:48.574Z,20.63
2018-07-03T02:19:19.778Z,20.61
2018-07-03T02:19:50.960Z,20.60
2018-07-03T02:20:22.141Z,20.57
2018-07-03T02:20:53.364Z,20.54
2018-07-03T02:21:24.540Z,20.55
2018-07-03T02:21:55.748Z,20.54
2018-07-03T02:22:26.937Z,20.55
2018-07-03T02:22:58.174Z,20.57
2018-07-03T02:23:29.352Z,20.57
2018-07-03T02:24:00.580Z,20.58
2018-07-03T02:24:31.808Z,20.59
2018-07-03T02:25:02.997Z,20.63
2018-07-03T02:25:34.172Z,20.65
2018-07-03T02:26:05.405Z,20.69
2018-07-03T02:26:36.591Z,20.71
2018-07-03T02:27:07.817Z,20.71
2018-07-03T02:27:38.998Z,20.74
2018-07-03T02:28:10.184Z,20.72
2018-07-03T02:28:41.372Z,20.73
2018-07-03T02:29:12.565Z,20.72
2018-07-03T02:29:43.736Z,20.72
2018-07-03T02:30:15.001Z,20.73
2018-07-03T02:30:46.196Z,20.71
2018-07-03T02:31:17.370Z,20.71
2018-07-03T02:31:48.548Z,20.72
2018-07-03T02:32:19.787Z,20.75
2018-07-03T02:32:50.985Z,20.76
2018-07-03T02:33:22.172Z,20.78
2018-07-03T02:33:53.346Z,20.81
2018-07-03T02:34:24.620Z,20.83
2018-07-03T02:34:55.940Z,20.83
2018-07-03T02:35:27.183Z,20.83
2018-07-03T02:35:58.441Z,20.83
2018-07-03T02:36:29.638Z,20.84
2018-07-03T02:37:00.836Z,20.83
2018-07-03T02:37:32.008Z,20.81
2018-07-03T02:38:03.241Z,20.78
2018-07-03T02:38:34.444Z,20.74
2018-07-03T02:39:05.670Z,20.70
2018-07-03T02:39:36.861Z,20.69
2018-07-03T02:40:08.075Z,20.68
2018-07-03T02:40:39.252Z,20.66
2018-07-03T02:41:10.993Z,20.64
2018-07-03T02:41:42.173Z,20.64
2018-07-03T02:42:13.349Z,20.63
2018-07-03T02:42:44.646Z,20.62
2018-07-03T02:43:15.880Z,20.61
2018-07-03T02:43:47.149Z,20.58
2018-07-03T02:44:18.346Z,20.57
2018-07-03T02:44:49.585Z,20.59
2018-07-03T02:45:21.488Z,20.58
2018-07-03T02:45:52.757Z,20.59
2018-07-03T02:46:23.947Z,20.60
2018-07-03T02:46:55.128Z,20.60
2018-07-03T02:47:26.353Z,20.60
2018-07-03T02:47:57.542Z,20.63
2018-07-03T02:48:28.716Z,20.64
2018-07-03T02:48:59.930Z,20.67
2018-07-03T02:49:31.109Z,20.72
2018-07-03T02:50:02.305Z,20.76
2018-07-03T02:50:33.548Z,20.78
2018-07-03T02:51:04.777Z,20.79
2018-07-03T02:51:36.013Z,20.80
2018-07-03T02:52:07.293Z,20.83
2018-07-03T02:52:38.489Z,20.86
2018-07-03T02:53:09.715Z,20.85
2018-07-03T02:53:40.997Z,20.84
2018-07-03T02:54:12.176Z,20.83
2018-07-03T02:54:43.401Z,20.83
2018-07-03T02:55:14.595Z,20.82
2018-07-03T02:55:45.765Z,20.79
2018-07-03T02:56:16.948Z,20.75
2018-07-03T02:56:48.173Z,20.73
2018-07-03T02:57:19.360Z,20.74
2018-07-03T02:57:50.573Z,20.72
2018-07-03T02:58:21.750Z,20.72
2018-07-03T02:58:52.921Z,20.70
2018-07-03T02:59:24.139Z,20.67
2018-07-03T02:59:55.320Z,20.66
2018-07-03T03:00:26.505Z,20.67
2018-07-03T03:00:57.687Z,20.65
2018-07-03T03:01:28.863Z,20.65
2018-07-03T03:02:00.048Z,20.63
2018-07-03T03:02:31.274Z,20.62
2018-07-03T03:03:02.485Z,20.64
2018-07-03T03:03:33.721Z,20.63
2018-07-03T03:04:04.957Z,20.60
2018-07-03T03:04:36.140Z,20.57
2018-07-03T03:05:07.362Z,20.55
2018-07-03T03:05:38.581Z,20.53
2018-07-03T03:06:09.757Z,20.53
2018-07-03T03:06:40.964Z,20.52
2018-07-03T03:07:12.145Z,20.52
2018-07-03T03:07:43.324Z,20.50
2018-07-03T03:08:14.588Z,20.55
2018-07-03T03:08:46.085Z,20.56
2018-07-03T03:09:17.266Z,20.58
2018-07-03T03:09:48.446Z,20.60
2018-07-03T03:10:19.631Z,20.60
2018-07-03T03:10:50.921Z,20.62
2018-07-03T03:11:22.110Z,20.64
2018-07-03T03:11:53.324Z,20.66
2018-07-03T03:12:24.507Z,20.69
2018-07-03T03:12:55.685Z,20.57
2018-07-03T03:13:26.921Z,20.73
2018-07-03T03:13:58.114Z,20.73
2018-07-03T03:14:29.361Z,20.74
2018-07-03T03:15:01.083Z,20.77
2018-07-03T03:15:32.257Z,20.78
2018-07-03T03:16:03.478Z,20.82
2018-07-03T03:16:34.656Z,20.84
2018-07-03T03:17:05.841Z,20.88
2018-07-03T03:17:37.051Z,20.89
2018-07-03T03:18:08.285Z,20.91
2018-07-03T03:18:39.475Z,20.93
2018-07-03T03:19:11.509Z,20.93
2018-07-03T03:19:42.760Z,20.95
2018-07-03T03:20:14.022Z,20.98
2018-07-03T03:20:45.201Z,21.05
2018-07-03T03:21:16.425Z,21.11
2018-07-03T03:21:47.656Z,21.21
2018-07-03T03:22:18.892Z,21.31
2018-07-03T03:22:50.100Z,21.42
2018-07-03T03:23:21.300Z,21.47
2018-07-03T03:23:52.491Z,21.55
2018-07-03T03:24:23.670Z,21.65
2018-07-03T03:24:54.906Z,21.74
2018-07-03T03:25:26.153Z,21.83
2018-07-03T03:25:57.411Z,21.92
2018-07-03T03:26:28.692Z,22.03
2018-07-03T03:26:59.880Z,22.13
2018-07-03T03:27:31.489Z,22.21
2018-07-03T03:28:02.727Z,22.32
2018-07-03T03:28:33.897Z,22.43
2018-07-03T03:29:05.084Z,22.54
2018-07-03T03:29:36.266Z,22.64
2018-07-03T03:30:07.455Z,22.74
2018-07-03T03:30:38.632Z,22.86
2018-07-03T03:31:10.378Z,22.92
2018-07-03T03:31:41.603Z,22.94
2018-07-03T03:32:12.883Z,22.96
2018-07-03T03:32:45.243Z,23.00
2018-07-03T03:33:16.468Z,23.07
2018-07-03T03:33:47.670Z,23.14
2018-07-03T03:34:18.849Z,23.21
2018-07-03T03:34:50.058Z,23.32
2018-07-03T03:35:21.232Z,23.42
2018-07-03T03:35:52.549Z,23.52
2018-07-03T03:36:23.784Z,23.58
2018-07-03T03:36:55.033Z,23.66
2018-07-03T03:37:26.248Z,23.73
2018-07-03T03:37:57.431Z,23.79
2018-07-03T03:38:28.621Z,23.83
2018-07-03T03:38:59.865Z,23.84
2018-07-03T03:39:31.053Z,23.84
2018-07-03T03:40:02.249Z,23.87
2018-07-03T03:40:33.493Z,23.93
2018-07-03T03:41:04.676Z,24.00
2018-07-03T03:41:35.909Z,24.09
2018-07-03T03:42:07.101Z,24.19
2018-07-03T03:42:38.324Z,24.29
2018-07-03T03:43:09.517Z,24.36
2018-07-03T03:43:40.688Z,24.43
2018-07-03T03:44:11.871Z,24.49
2018-07-03T03:44:43.103Z,24.54
2018-07-03T03:45:14.299Z,24.59
2018-07-03T03:45:45.483Z,24.63
2018-07-03T03:46:16.665Z,24.63
2018-07-03T03:46:47.853Z,24.67
2018-07-03T03:47:19.081Z,24.72
2018-07-03T03:47:51.428Z,24.81
2018-07-03T03:48:22.621Z,24.92
2018-07-03T03:48:54.695Z,24.99
2018-07-03T03:49:26.089Z,25.10
2018-07-03T03:49:57.334Z,25.22
2018-07-03T03:50:28.622Z,25.33
2018-07-03T03:50:59.877Z,25.41
2018-07-03T03:51:31.125Z,25.48
2018-07-03T03:52:02.308Z,25.56
2018-07-03T03:52:33.485Z,25.66
2018-07-03T03:53:04.765Z,25.74
2018-07-03T03:53:35.964Z,25.82
2018-07-03T03:54:07.151Z,25.88
2018-07-03T03:54:38.412Z,25.93
2018-07-03T03:55:09.599Z,25.96
2018-07-03T03:55:40.777Z,25.97
2018-07-03T03:56:12.005Z,26.02
2018-07-03T03:56:43.205Z,26.08
2018-07-03T03:57:14.433Z,26.13
2018-07-03T03:57:45.670Z,26.13
2018-07-03T03:58:16.928Z,26.05
2018-07-03T03:58:48.180Z,26.00
2018-07-03T03:59:19.404Z,25.92
2018-07-03T03:59:50.596Z,25.78
2018-07-03T04:00:21.818Z,25.67
2018-07-03T04:00:53.065Z,25.58
2018-07-03T04:01:24.217Z,25.45
2018-07-03T04:01:55.439Z,25.43
2018-07-03T04:02:26.619Z,25.44
2018-07-03T04:02:57.852Z,25.51
2018-07-03T04:03:29.043Z,25.58
2018-07-03T04:04:00.257Z,25.76
2018-07-03T04:04:31.433Z,25.91
2018-07-03T04:05:02.666Z,26.04
2018-07-03T04:05:33.993Z,26.19
2018-07-03T04:06:05.815Z,26.30
2018-07-03T04:06:37.591Z,26.44
2018-07-03T04:07:09.853Z,26.53
2018-07-03T04:07:41.060Z,26.65
2018-07-03T04:08:12.258Z,26.71
2018-07-03T04:08:43.461Z,26.71
2018-07-03T04:09:14.701Z,26.71
2018-07-03T04:09:45.897Z,26.70
2018-07-03T04:10:17.089Z,26.64
2018-07-03T04:10:48.378Z,26.52
2018-07-03T04:11:19.580Z,26.41
2018-07-03T04:11:50.764Z,26.31
2018-07-03T04:12:21.944Z,26.17
2018-07-03T04:12:53.123Z,26.15
2018-07-03T04:13:24.319Z,26.14
2018-07-03T04:13:55.509Z,26.17
2018-07-03T04:14:26.750Z,26.22
2018-07-03T04:14:58.025Z,26.26
2018-07-03T04:15:29.231Z,26.42
2018-07-03T04:16:00.506Z,26.56
2018-07-03T04:16:31.753Z,26.71
2018-07-03T04:17:02.955Z,26.81
2018-07-03T04:17:34.808Z,26.80
2018-07-03T04:18:06.035Z,26.71
2018-07-03T04:18:37.269Z,26.64
2018-07-03T04:19:08.452Z,26.53
2018-07-03T04:19:39.685Z,26.38
2018-07-03T04:20:10.877Z,26.23
2018-07-03T04:20:42.101Z,26.07
2018-07-03T04:21:13.281Z,25.88
2018-07-03T04:21:44.513Z,25.89
2018-07-03T04:22:15.705Z,25.92
2018-07-03T04:22:46.954Z,25.98
2018-07-03T04:23:18.143Z,26.09
2018-07-03T04:23:49.365Z,26.15
2018-07-03T04:24:20.608Z,26.18
2018-07-03T04:24:51.832Z,26.09
2018-07-03T04:25:23.020Z,26.03
2018-07-03T04:25:54.201Z,25.93
2018-07-03T04:26:25.428Z,25.84
2018-07-03T04:26:56.664Z,25.69
2018-07-03T04:27:27.896Z,25.59
2018-07-03T04:27:59.081Z,25.52
2018-07-03T04:28:30.309Z,25.51
2018-07-03T04:29:01.534Z,25.52
2018-07-03T04:29:32.981Z,25.55
2018-07-03T04:30:04.206Z,25.54
2018-07-03T04:30:35.457Z,25.55
2018-07-03T04:31:06.648Z,25.56
2018-07-03T04:31:37.923Z,25.52
2018-07-03T04:32:09.337Z,25.56
2018-07-03T04:32:40.519Z,25.63
2018-07-03T04:33:11.706Z,25.74
2018-07-03T04:33:42.950Z,25.98
2018-07-03T04:34:14.181Z,26.21
2018-07-03T04:34:45.961Z,26.48
2018-07-03T04:35:17.144Z,26.76
2018-07-03T04:35:48.377Z,27.00
2018-07-03T04:36:19.708Z,27.29
2018-07-03T04:36:50.976Z,27.51
2018-07-03T04:37:22.223Z,27.69
2018-07-03T04:37:53.429Z,27.82
2018-07-03T04:38:24.608Z,27.85
2018-07-03T04:38:55.796Z,27.90
2018-07-03T04:39:26.996Z,27.88
2018-07-03T04:39:58.238Z,27.83
2018-07-03T04:40:29.478Z,27.71
2018-07-03T04:41:00.716Z,27.69
2018-07-03T04:41:31.941Z,27.65
2018-07-03T04:42:03.150Z,27.70
2018-07-03T04:42:34.336Z,27.73
2018-07-03T04:43:05.517Z,27.79
2018-07-03T04:43:36.704Z,27.86
2018-07-03T04:44:07.907Z,27.90
2018-07-03T04:44:39.145Z,27.92
2018-07-03T04:45:10.332Z,27.93
2018-07-03T04:45:41.521Z,27.96
2018-07-03T04:46:12.754Z,28.04
2018-07-03T04:46:43.986Z,28.16
2018-07-03T04:47:15.232Z,28.23
2018-07-03T04:47:46.436Z,28.33
2018-07-03T04:48:17.624Z,28.44
2018-07-03T04:48:48.842Z,28.49
2018-07-03T04:49:20.054Z,28.57
2018-07-03T04:49:51.296Z,28.63
2018-07-03T04:50:22.529Z,28.67
2018-07-03T04:50:53.789Z,28.66
2018-07-03T04:51:24.977Z,28.63
2018-07-03T04:51:56.262Z,28.60
2018-07-03T04:52:27.452Z,28.51
2018-07-03T04:52:58.669Z,28.44
2018-07-03T04:53:29.959Z,28.41
2018-07-03T04:54:01.155Z,28.32
2018-07-03T04:54:32.378Z,28.28
2018-07-03T04:55:03.559Z,28.26
2018-07-03T04:55:34.800Z,28.27
2018-07-03T04:56:06.005Z,28.30
2018-07-03T04:56:37.188Z,28.36
2018-07-03T04:57:08.413Z,28.46
2018-07-03T04:57:39.645Z,28.58
2018-07-03T04:58:10.833Z,28.71
2018-07-03T04:58:42.017Z,28.82
2018-07-03T04:59:13.207Z,28.93
2018-07-03T04:59:44.384Z,29.10
2018-07-03T05:00:16.328Z,29.22
2018-07-03T05:00:47.521Z,29.22
2018-07-03T05:01:18.701Z,29.23
2018-07-03T05:01:49.872Z,29.25
2018-07-03T05:02:21.077Z,29.20
2018-07-03T05:02:52.247Z,29.24
2018-07-03T05:03:23.434Z,29.27
2018-07-03T05:03:54.659Z,29.30
2018-07-03T05:04:25.901Z,29.39
2018-07-03T05:04:57.135Z,29.35
2018-07-03T05:05:28.333Z,29.31
2018-07-03T05:05:59.599Z,29.40
2018-07-03T05:06:30.866Z,29.57
2018-07-03T05:07:02.057Z,29.75
2018-07-03T05:07:33.244Z,30.03
2018-07-03T05:08:04.474Z,30.27
2018-07-03T05:08:35.663Z,30.51
2018-07-03T05:09:06.869Z,30.62
2018-07-03T05:09:38.742Z,30.86
2018-07-03T05:10:10.030Z,30.91
2018-07-03T05:10:41.286Z,30.84
2018-07-03T05:11:12.475Z,30.74
2018-07-03T05:12:21.124Z,30.87
2018-07-03T05:12:52.948Z,31.02
2018-07-03T05:13:24.138Z,31.01
2018-07-03T05:13:55.353Z,31.05
2018-07-03T05:14:27.252Z,31.15
2018-07-03T05:14:58.452Z,31.32
2018-07-03T05:15:29.646Z,31.30
2018-07-03T05:16:01.493Z,31.32
2018-07-03T05:16:33.582Z,31.45
2018-07-03T05:17:04.823Z,31.61
2018-07-03T05:17:36.337Z,31.73
2018-07-03T05:18:07.543Z,31.85
2018-07-03T05:18:38.757Z,31.65
2018-07-03T05:19:09.980Z,31.47
2018-07-03T05:19:41.160Z,31.38
2018-07-03T05:20:12.350Z,31.34
2018-07-03T05:20:43.540Z,31.32
2018-07-03T05:21:14.727Z,31.35
2018-07-03T05:21:45.905Z,31.47
2018-07-03T05:22:17.092Z,31.37
2018-07-03T05:22:48.307Z,31.01
2018-07-03T05:23:19.484Z,30.69
2018-07-03T05:23:50.696Z,30.46
2018-07-03T05:24:21.917Z,30.52
2018-07-03T05:24:53.100Z,29.79
2018-07-03T05:25:24.326Z,30.47
2018-07-03T05:25:55.554Z,30.44
2018-07-03T05:26:26.728Z,30.59
2018-07-03T05:26:57.959Z,30.55
2018-07-03T05:27:29.202Z,30.64
2018-07-03T05:28:00.401Z,30.73
2018-07-03T05:28:31.624Z,30.72
2018-07-03T05:29:02.808Z,30.74
2018-07-03T05:29:34.013Z,30.73
2018-07-03T05:30:05.202Z,30.68
2018-07-03T05:30:36.436Z,30.64
2018-07-03T05:31:07.671Z,30.66
2018-07-03T05:31:38.880Z,30.63
2018-07-03T05:32:10.061Z,30.66
2018-07-03T05:32:41.305Z,30.88
2018-07-03T05:33:12.541Z,31.06
2018-07-03T05:33:43.785Z,31.17
2018-07-03T05:34:15.034Z,31.29
2018-07-03T05:34:47.078Z,31.36
2018-07-03T05:35:18.269Z,31.44
2018-07-03T05:35:49.443Z,31.45
2018-07-03T05:36:20.671Z,31.64
2018-07-03T05:36:51.927Z,31.81
2018-07-03T05:37:23.117Z,32.05
2018-07-03T05:37:54.296Z,32.22
2018-07-03T05:38:25.517Z,32.09
2018-07-03T05:38:56.874Z,32.08
2018-07-03T05:39:28.124Z,32.16
2018-07-03T05:39:59.313Z,32.23
2018-07-03T05:40:30.512Z,31.99
2018-07-03T05:41:01.703Z,31.85
2018-07-03T05:41:32.937Z,31.32
2018-07-03T05:42:04.125Z,31.10
2018-07-03T05:42:35.310Z,31.21
2018-07-03T05:43:06.591Z,31.36
2018-07-03T05:43:37.801Z,31.48
2018-07-03T05:44:09.985Z,31.47
2018-07-03T05:44:41.217Z,31.56
2018-07-03T05:45:12.469Z,31.46
2018-07-03T05:45:43.724Z,31.39
2018-07-03T05:46:14.977Z,31.31
2018-07-03T05:46:46.230Z,31.15
2018-07-03T05:47:17.452Z,31.06
2018-07-03T05:47:48.937Z,30.92
2018-07-03T05:48:20.123Z,30.81
2018-07-03T05:48:51.375Z,30.73
2018-07-03T05:49:22.634Z,30.66
2018-07-03T05:49:53.886Z,30.58
2018-07-03T05:50:26.079Z,30.57
2018-07-03T05:50:57.362Z,30.59
2018-07-03T05:51:28.784Z,30.61
2018-07-03T05:51:59.842Z,30.57
2018-07-03T05:52:31.054Z,30.57
2018-07-03T05:53:02.305Z,30.62
2018-07-03T05:53:33.517Z,30.68
2018-07-03T05:54:04.745Z,30.79
2018-07-03T05:54:35.949Z,30.79
2018-07-03T05:55:07.145Z,30.94
2018-07-03T05:55:38.360Z,31.00
2018-07-03T05:56:09.620Z,31.01
2018-07-03T05:56:40.827Z,30.94
2018-07-03T05:57:12.016Z,30.77
2018-07-03T05:57:43.218Z,30.54
2018-07-03T05:58:14.616Z,30.42
2018-07-03T05:58:45.641Z,30.30
2018-07-03T05:59:16.878Z,30.16
2018-07-03T05:59:48.113Z,30.14
2018-07-03T06:00:19.361Z,30.11
2018-07-03T06:00:50.553Z,30.15
2018-07-03T06:01:21.781Z,30.18
2018-07-03T06:01:52.983Z,30.32
2018-07-03T06:02:24.170Z,30.33
2018-07-03T06:02:55.352Z,30.35
2018-07-03T06:03:26.594Z,30.32
2018-07-03T06:03:57.884Z,30.38
2018-07-03T06:04:29.120Z,30.35
2018-07-03T06:05:00.361Z,30.39
2018-07-03T06:05:32.112Z,30.40
2018-07-03T06:06:03.326Z,30.30
2018-07-03T06:06:34.561Z,30.31
2018-07-03T06:07:05.767Z,30.26
2018-07-03T06:07:36.957Z,30.31
2018-07-03T06:08:08.136Z,30.35
2018-07-03T06:08:39.380Z,30.38
2018-07-03T06:09:10.628Z,30.24
2018-07-03T06:09:41.812Z,30.07
2018-07-03T06:10:13.008Z,30.12
2018-07-03T06:10:44.220Z,30.13
2018-07-03T06:11:15.413Z,30.19
2018-07-03T06:11:46.595Z,30.19
2018-07-03T06:12:17.776Z,30.24
2018-07-03T06:12:48.989Z,30.31
2018-07-03T06:13:20.196Z,30.34
2018-07-03T06:13:51.442Z,30.45
2018-07-03T06:14:22.736Z,30.64
2018-07-03T06:14:53.965Z,30.74
2018-07-03T06:15:25.209Z,30.80
2018-07-03T06:15:56.470Z,30.84
2018-07-03T06:16:27.680Z,30.92
2018-07-03T06:16:58.927Z,30.88
2018-07-03T06:17:33.545Z,30.83
2018-07-03T06:18:04.749Z,30.72
2018-07-03T06:18:35.945Z,30.70
2018-07-03T06:19:07.742Z,30.71
2018-07-03T06:19:38.966Z,30.78
2018-07-03T06:20:10.277Z,30.68
2018-07-03T06:20:41.704Z,30.69
2018-07-03T06:21:12.884Z,30.65
2018-07-03T06:21:44.114Z,30.69
2018-07-03T06:22:15.309Z,30.82
2018-07-03T06:22:46.530Z,30.93
2018-07-03T06:23:17.696Z,30.98
2018-07-03T06:23:48.868Z,31.05
2018-07-03T06:24:20.041Z,31.09
2018-07-03T06:24:51.836Z,31.09
2018-07-03T06:25:23.192Z,31.11
2018-07-03T06:25:54.296Z,31.11
2018-07-03T06:26:25.529Z,31.11
2018-07-03T06:26:56.785Z,31.13
2018-07-03T06:27:27.969Z,31.07
2018-07-03T06:27:59.185Z,30.98
2018-07-03T06:28:30.428Z,30.84
2018-07-03T06:29:01.734Z,30.67
2018-07-03T06:29:32.895Z,30.70
2018-07-03T06:30:04.077Z,30.75
2018-07-03T06:30:35.499Z,30.68
2018-07-03T06:31:06.684Z,30.72
2018-07-03T06:31:37.876Z,30.75
2018-07-03T06:32:09.101Z,30.69
2018-07-03T06:32:40.289Z,30.62
2018-07-03T06:33:11.700Z,30.62
2018-07-03T06:33:42.743Z,30.65
2018-07-03T06:34:13.937Z,30.61
2018-07-03T06:34:45.129Z,30.56
2018-07-03T06:35:17.092Z,30.63
2018-07-03T06:35:48.374Z,30.73
2018-07-03T06:36:19.625Z,30.81
2018-07-03T06:36:50.801Z,30.86
2018-07-03T06:37:22.065Z,30.92
2018-07-03T06:37:53.214Z,30.98
2018-07-03T06:38:24.402Z,31.08
2018-07-03T06:38:55.622Z,31.19
2018-07-03T06:39:26.796Z,31.27
2018-07-03T06:39:57.976Z,31.21
2018-07-03T06:40:29.160Z,31.08
2018-07-03T06:41:00.445Z,31.10
2018-07-03T06:41:31.678Z,31.12
2018-07-03T06:42:02.869Z,31.12
2018-07-03T06:42:34.137Z,31.12
2018-07-03T06:43:05.993Z,31.10